»·PEaware :: DAL978 KRNO-KSLC

DAL978 :: KRNO-KSLC

FLIGHT INFORMATION

Flight Status: Arrived
Operator:
Delta Air Lines
More flights by this operator :: More flights under this callsign
Pilot: John C. (18682)
Aircraft: BOEING 737-800
(B738)
More flights by this aircraft type
Origin: KRNO Reno/Tahoe Intl
United States
Destination: KSLC Salt Lake City Intl
United States
More flights between these airports :: More routes between these airports
Route: +PVINE3 PYGOW LLC BAM J154 BVL WAATS5
File this flight plan on PilotEdge
Remarks:
Altitude:
(Current/Filed)
39,000ft
Speed:
(Current/Filed)
463kts
Departed: 06-Oct-18 10:58 AM
Arrived: 06-Oct-18 12:05 PM
Distance/Time
Traveled:
365nm/1:07
Distance/Time
To Go:
Arrived

Flight Plot

Page will automatically refresh every two minutes.

Flight plan parsing failed; only flown route is shown


Map Options




Map Legend


Flown Route
Filed Route
Departure Airport
Arrival Airport
Navaid (VOR, NDB)
Fix

Horizontal Profiles

Position Reports

Time Latitude Longitude Heading Altitude Ground
Speed
06-Oct-18 10:28 39.506575 -119.773047 0 4413ft 0kts
06-Oct-18 10:29 39.506575 -119.773047 0 4413ft 0kts
06-Oct-18 10:30 39.506575 -119.773047 0 4413ft 0kts
06-Oct-18 10:31 39.506575 -119.773047 0 4413ft 0kts
06-Oct-18 10:32 39.506575 -119.773047 0 4413ft 0kts
06-Oct-18 10:33 39.506575 -119.773047 0 4413ft 0kts
06-Oct-18 10:34 39.506575 -119.773047 0 4413ft 0kts
06-Oct-18 10:35 39.506575 -119.773047 0 4413ft 0kts
06-Oct-18 10:36 39.506575 -119.773047 0 4413ft 0kts
06-Oct-18 10:37 39.506575 -119.773047 0 4413ft 0kts
06-Oct-18 10:38 39.506575 -119.773047 0 4413ft 0kts
06-Oct-18 10:39 39.506575 -119.773047 0 4413ft 0kts
06-Oct-18 10:40 39.506575 -119.773047 0 4413ft 0kts
06-Oct-18 10:41 39.506575 -119.773047 0 4413ft 0kts
06-Oct-18 10:42 39.506575 -119.773047 0 4413ft 0kts
06-Oct-18 10:43 39.506575 -119.773047 0 4414ft 0kts
06-Oct-18 10:44 39.506575 -119.773047 0 4414ft 0kts
06-Oct-18 10:45 39.506476 -119.773049 0 4413ft 2kts
06-Oct-18 10:46 39.505924 -119.773191 68 4413ft 2kts
06-Oct-18 10:47 39.505909 -119.773518 88 4414ft 0kts
06-Oct-18 10:48 39.505909 -119.773552 89 4414ft 0kts
06-Oct-18 10:49 39.505911 -119.773332 88 4414ft 6kts
06-Oct-18 10:50 39.504751 -119.771495 180 4410ft 15kts
06-Oct-18 10:51 39.500619 -119.771507 179 4410ft 16kts
06-Oct-18 10:52 39.495170 -119.771529 179 4410ft 21kts
06-Oct-18 10:53 39.489498 -119.771536 180 4410ft 20kts
06-Oct-18 10:54 39.484724 -119.771551 179 4418ft 13kts
06-Oct-18 10:55 39.483779 -119.770616 92 4419ft 0kts
06-Oct-18 10:56 39.483779 -119.770616 92 4419ft 0kts
06-Oct-18 10:57 39.483779 -119.770616 92 4419ft 0kts
06-Oct-18 10:58 39.483779 -119.770616 92 4419ft 0kts
06-Oct-18 10:59 39.483764 -119.769790 90 4419ft 11kts
06-Oct-18 11:00 39.498175 -119.769254 359 4407ft 142kts
06-Oct-18 11:01 39.544514 -119.768274 1 6019ft 184kts
06-Oct-18 11:02 39.604437 -119.760548 22 6898ft 262kts
06-Oct-18 11:03 39.662790 -119.699944 36 9463ft 277kts
06-Oct-18 11:04 39.725492 -119.635947 35 10819ft 304kts
06-Oct-18 11:05 39.787730 -119.560427 45 12512ft 317kts
06-Oct-18 11:06 39.847504 -119.475525 43 15306ft 325kts
06-Oct-18 11:07 39.909387 -119.388329 42 18008ft 334kts
06-Oct-18 11:08 39.972723 -119.298863 42 20412ft 344kts
06-Oct-18 11:09 40.023641 -119.191062 69 22583ft 374kts
06-Oct-18 11:10 40.046417 -119.055802 70 24475ft 388kts
06-Oct-18 11:11 40.069512 -118.915064 71 25938ft 408kts
06-Oct-18 11:12 40.093774 -118.767918 73 27498ft 421kts
06-Oct-18 11:13 40.118723 -118.617583 73 29032ft 432kts
06-Oct-18 11:14 40.154143 -118.469393 65 30812ft 427kts
06-Oct-18 11:15 40.191749 -118.326475 66 32481ft 425kts
06-Oct-18 11:16 40.230071 -118.181087 66 33992ft 422kts
06-Oct-18 11:17 40.268285 -118.036747 65 35347ft 420kts
06-Oct-18 11:18 40.306450 -117.893267 65 36574ft 417kts
06-Oct-18 11:19 40.344731 -117.750001 65 37593ft 417kts
06-Oct-18 11:20 40.383300 -117.606297 65 38519ft 417kts
06-Oct-18 11:21 40.422098 -117.462473 65 39050ft 427kts
06-Oct-18 11:22 40.462597 -117.312967 65 39034ft 450kts
06-Oct-18 11:23 40.505382 -117.155657 65 39028ft 461kts
06-Oct-18 11:24 40.548913 -116.996524 67 39030ft 472kts
06-Oct-18 11:25 40.575644 -116.827967 89 39014ft 473kts
06-Oct-18 11:26 40.582437 -116.655865 86 39022ft 473kts
06-Oct-18 11:27 40.590800 -116.483916 85 39020ft 473kts
06-Oct-18 11:28 40.599446 -116.312365 86 39013ft 473kts
06-Oct-18 11:29 40.608380 -116.140089 86 39008ft 473kts
06-Oct-18 11:30 40.617542 -115.968180 85 39011ft 473kts
06-Oct-18 11:31 40.626988 -115.795683 85 39009ft 473kts
06-Oct-18 11:32 40.636693 -115.623025 85 39010ft 473kts
06-Oct-18 11:33 40.646610 -115.451027 85 39011ft 473kts
06-Oct-18 11:34 40.656753 -115.279617 85 39008ft 473kts
06-Oct-18 11:35 40.667194 -115.107342 86 39009ft 474kts
06-Oct-18 11:36 40.677806 -114.937008 87 38983ft 443kts
06-Oct-18 11:37 40.684360 -114.776722 89 38995ft 443kts
06-Oct-18 11:38 40.690436 -114.615425 89 37826ft 446kts
06-Oct-18 11:39 40.696813 -114.451261 89 34974ft 454kts
06-Oct-18 11:40 40.703250 -114.291254 88 31980ft 462kts
06-Oct-18 11:41 40.710242 -114.123287 88 29270ft 453kts
06-Oct-18 11:42 40.716980 -113.966079 87 27008ft 438kts
06-Oct-18 11:43 40.723876 -113.809578 86 24781ft 421kts
06-Oct-18 11:44 40.726280 -113.663083 90 23998ft 370kts
06-Oct-18 11:45 40.725928 -113.526386 90 24002ft 382kts
06-Oct-18 11:46 40.725522 -113.386298 90 24016ft 382kts
06-Oct-18 11:47 40.725072 -113.268772 90 22844ft 388kts
06-Oct-18 11:48 40.724394 -113.128250 90 20781ft 380kts
06-Oct-18 11:49 40.723586 -112.992347 90 18873ft 368kts
06-Oct-18 11:50 40.722689 -112.860248 92 17061ft 356kts
06-Oct-18 11:51 40.721745 -112.739967 93 17050ft 324kts
06-Oct-18 11:52 40.720578 -112.622234 93 16995ft 332kts
06-Oct-18 11:53 40.719027 -112.500095 94 15248ft 333kts
06-Oct-18 11:54 40.715334 -112.382405 94 13673ft 324kts
06-Oct-18 11:55 40.711827 -112.270165 94 12208ft 315kts
06-Oct-18 11:56 40.719024 -112.158937 66 11901ft 311kts
06-Oct-18 11:57 40.781787 -112.099516 4 11004ft 267kts
06-Oct-18 11:58 40.853247 -112.104193 354 10748ft 256kts
06-Oct-18 11:59 40.920580 -112.112034 354 10080ft 230kts
06-Oct-18 12:00 40.980719 -112.116464 16 9012ft 216kts
06-Oct-18 12:01 41.006385 -112.052610 81 7670ft 208kts
06-Oct-18 12:02 40.975643 -111.999039 165 6329ft 197kts
06-Oct-18 12:03 40.922717 -111.990413 175 6011ft 192kts
06-Oct-18 12:04 40.874491 -111.984732 176 5548ft 162kts
06-Oct-18 12:05 40.833732 -111.979891 175 4779ft 148kts
06-Oct-18 12:06 40.797224 -111.975757 175 4235ft 89kts
06-Oct-18 12:07 40.790208 -111.976529 215 4235ft 11kts
06-Oct-18 12:08 40.789842 -111.980436 296 4235ft 12kts
06-Oct-18 12:09 40.789844 -111.985798 237 4235ft 16kts
06-Oct-18 12:10 40.788400 -111.985571 71 4235ft 1kts
06-Oct-18 12:11 40.788442 -111.985406 71 4235ft 0kts
06-Oct-18 12:12 40.788442 -111.985406 71 4235ft 0kts
06-Oct-18 12:13 40.788442 -111.985406 71 4235ft 0kts

Navigation Log

Ident Type
Flight plan parsing failed, navigation log unavailable